Time;durP1;ratioP1;P1;durP2;ratioP2;P2;SDS_P1;SDS_P2;PMS_P1;PMS_P2;Temp;Humidity;BMP_temperature;BMP_pressure;BME280_temperature;BME280_humidity;BME280_pressure;Samples;Min_cycle;Max_cycle;Signal;HPM_P1;HPM_P2
2023/02/01 00:01:24;;;;;;;6.18;3.53;;;;;;;2.29;100.00;96011.84;4969647;28;20049;-77
2023/02/01 00:03:50;;;;;;;6.18;3.10;;;;;;;2.31;100.00;96009.03;4968309;28;20077;-77
2023/02/01 00:06:15;;;;;;;5.15;2.70;;;;;;;2.32;100.00;96002.84;4956913;28;20105;-77
2023/02/01 00:08:41;;;;;;;5.07;2.53;;;;;;;2.30;100.00;95991.84;4972742;28;20524;-77
2023/02/01 00:11:09;;;;;;;7.07;2.40;;;;;;;2.32;100.00;95995.84;4970986;28;20049;-77
2023/02/01 00:13:38;;;;;;;8.27;3.30;;;;;;;2.32;100.00;96000.25;4971244;28;20573;-77
2023/02/01 00:16:08;;;;;;;5.43;2.72;;;;;;;2.34;100.00;96000.81;4953446;28;20046;-77
2023/02/01 00:18:33;;;;;;;6.45;2.72;;;;;;;2.33;100.00;95996.63;4948340;28;20079;-77
2023/02/01 00:20:59;;;;;;;4.93;2.75;;;;;;;2.36;100.00;96001.44;4971031;28;20046;-77
2023/02/01 00:23:26;;;;;;;5.10;2.80;;;;;;;2.34;100.00;95987.84;4970087;28;20517;-77
2023/02/01 00:25:51;;;;;;;6.15;2.90;;;;;;;2.32;100.00;96000.25;4970535;28;20507;-77
2023/02/01 00:28:17;;;;;;;6.57;2.90;;;;;;;2.36;100.00;95991.03;4953492;28;20050;-78
2023/02/01 00:30:42;;;;;;;6.40;2.58;;;;;;;2.32;100.00;95984.66;4954706;28;20043;-77
2023/02/01 00:33:08;;;;;;;4.63;2.50;;;;;;;2.41;100.00;95979.03;4966822;28;20208;-77
2023/02/01 00:35:34;;;;;;;6.05;2.72;;;;;;;2.41;100.00;95983.41;4971764;28;20034;-78
2023/02/01 00:38:01;;;;;;;4.50;2.60;;;;;;;2.45;100.00;95979.41;4972521;28;20419;-78
2023/02/01 00:40:26;;;;;;;5.13;2.65;;;;;;;2.38;100.00;95973.44;4953508;28;20039;-78
2023/02/01 00:42:53;;;;;;;5.63;2.88;;;;;;;2.39;100.00;95975.03;4953744;28;20498;-78
2023/02/01 00:45:18;;;;;;;6.18;2.97;;;;;;;2.41;100.00;95978.22;4971756;28;20039;-77
2023/02/01 00:47:44;;;;;;;5.95;2.72;;;;;;;2.32;100.00;95971.69;4971455;28;20043;-76
2023/02/01 00:50:10;;;;;;;7.35;3.05;;;;;;;2.29;100.00;95979.88;4969655;28;20038;-77
2023/02/01 00:52:35;;;;;;;6.15;2.92;;;;;;;2.21;100.00;95984.31;4971230;28;20043;-77
2023/02/01 00:55:01;;;;;;;5.45;2.85;;;;;;;2.20;100.00;95987.88;4969382;28;20491;-77
2023/02/01 00:57:27;;;;;;;6.05;3.08;;;;;;;2.12;100.00;95980.31;4969894;28;20131;-77
2023/02/01 00:59:52;;;;;;;6.03;3.08;;;;;;;2.00;100.00;95981.97;4969883;28;20096;-77
2023/02/01 01:02:18;;;;;;;5.88;3.10;;;;;;;1.87;100.00;95980.97;4953110;28;20097;-77
2023/02/01 01:04:43;;;;;;;5.95;3.15;;;;;;;1.76;100.00;95981.59;4969166;28;20046;-77
2023/02/01 01:07:09;;;;;;;8.38;3.50;;;;;;;1.68;100.00;95963.63;4952696;28;20513;-77
2023/02/01 01:09:35;;;;;;;6.80;3.00;;;;;;;1.66;100.00;95981.19;4970158;28;20045;-77
2023/02/01 01:12:02;;;;;;;6.78;3.50;;;;;;;1.65;100.00;95975.22;4952941;28;20473;-77
2023/02/01 01:14:31;;;;;;;7.53;3.15;;;;;;;1.61;100.00;95973.22;4952685;28;20099;-77
2023/02/01 01:16:57;;;;;;;5.53;2.90;;;;;;;1.60;100.00;95982.00;4951604;28;20046;-77
2023/02/01 01:19:23;;;;;;;6.20;3.33;;;;;;;1.65;100.00;95974.41;4952169;28;20051;-77
2023/02/01 01:21:48;;;;;;;5.90;3.15;;;;;;;1.63;100.00;95976.41;4952826;28;20071;-77
2023/02/01 01:24:14;;;;;;;5.88;3.05;;;;;;;1.65;100.00;95969.22;4969059;28;20042;-76
2023/02/01 01:26:40;;;;;;;8.07;3.42;;;;;;;1.66;100.00;95965.63;4970502;28;20059;-77
2023/02/01 01:29:05;;;;;;;9.32;3.22;;;;;;;1.60;100.00;95962.03;4969391;28;20739;-77
2023/02/01 01:31:31;;;;;;;7.15;3.30;;;;;;;1.60;100.00;95961.25;4970485;28;20047;-77
2023/02/01 01:33:59;;;;;;;7.97;3.50;;;;;;;1.52;100.00;95968.25;4970305;28;20051;-77
2023/02/01 01:36:26;;;;;;;9.27;4.30;;;;;;;1.48;100.00;95967.06;4969941;28;20046;-77
2023/02/01 01:38:52;;;;;;;8.55;3.72;;;;;;;1.51;100.00;95969.25;4969678;28;20043;-77
2023/02/01 01:41:21;;;;;;;6.50;3.63;;;;;;;1.41;100.00;95962.84;4969505;28;20042;-77
2023/02/01 01:43:48;;;;;;;7.78;4.03;;;;;;;1.41;100.00;95963.66;4952175;28;20043;-77
2023/02/01 01:46:26;;;;;;;7.65;3.80;;;;;;;1.30;100.00;95951.28;4956206;28;20511;-77
2023/02/01 01:49:17;;;;;;;7.13;4.07;;;;;;;1.31;100.00;95947.72;4968635;28;20050;-76
2023/02/01 01:52:03;;;;;;;8.25;4.43;;;;;;;1.32;100.00;95939.72;4968664;28;20522;-77
2023/02/01 01:54:31;;;;;;;8.00;4.22;;;;;;;1.20;100.00;95936.91;4966468;28;20141;-77
2023/02/01 01:57:03;;;;;;;7.85;3.95;;;;;;;1.17;100.00;95937.31;4969398;28;20051;-77
2023/02/01 01:59:31;;;;;;;8.98;4.65;;;;;;;1.14;100.00;95922.16;4969897;28;20049;-77
2023/02/01 02:01:56;;;;;;;8.20;4.57;;;;;;;1.14;100.00;95922.16;4969853;28;20411;-77
2023/02/01 02:04:23;;;;;;;10.68;5.22;;;;;;;1.11;100.00;95914.78;4968620;28;20119;-77
2023/02/01 02:07:01;;;;;;;9.27;4.90;;;;;;;1.15;100.00;95913.41;4952225;28;20054;-77
2023/02/01 02:09:27;;;;;;;8.85;4.70;;;;;;;1.14;100.00;95911.00;4968834;28;20481;-77
2023/02/01 02:11:52;;;;;;;7.43;4.05;;;;;;;1.18;100.00;95907.81;4969458;28;20046;-77
2023/02/01 02:14:22;;;;;;;14.38;4.85;;;;;;;1.12;100.00;95903.44;4954513;28;20058;-77
2023/02/01 02:16:52;;;;;;;6.70;3.97;;;;;;;1.15;100.00;95916.00;4969946;28;20061;-77
2023/02/01 02:19:40;;;;;;;8.73;4.07;;;;;;;1.17;100.00;95916.56;4954653;28;20035;-77
2023/02/01 02:22:24;;;;;;;8.00;4.38;;;;;;;1.24;100.00;95915.78;4973313;28;20050;-77
2023/02/01 02:24:50;;;;;;;11.63;5.07;;;;;;;1.24;100.00;95915.78;4956507;28;20043;-77
2023/02/01 02:27:28;;;;;;;9.45;4.15;;;;;;;1.31;100.00;95921.78;4972584;28;20042;-77
2023/02/01 02:30:05;;;;;;;7.85;4.50;;;;;;;1.28;100.00;95927.34;4974023;28;20046;-77
2023/02/01 02:33:08;;;;;;;8.60;4.30;;;;;;;1.28;100.00;95932.53;4973314;28;20039;-78
2023/02/01 02:35:54;;;;;;;7.05;4.15;;;;;;;1.29;100.00;95934.13;4975803;28;20422;-79
2023/02/01 02:38:32;;;;;;;9.43;4.93;;;;;;;1.37;100.00;95936.53;4970888;28;20034;-78
2023/02/01 02:41:07;;;;;;;7.60;4.05;;;;;;;1.45;100.00;95927.72;4973617;28;20050;-78
2023/02/01 02:49:30;;;;;;;6.75;4.00;;;;;;;1.42;100.00;95915.97;4973595;28;20301;-78
2023/02/01 02:54:50;;;;;;;10.50;4.20;;;;;;;1.47;100.00;95910.19;4971554;28;20050;-78
2023/02/01 03:05:44;;;;;;;10.20;4.40;;;;;;;1.52;100.00;95908.59;4975070;28;20039;-78
2023/02/01 03:08:14;;;;;;;7.25;3.92;;;;;;;1.52;100.00;95906.00;4957087;28;20098;-78
2023/02/01 03:11:10;;;;;;;8.30;4.05;;;;;;;1.55;100.00;95908.19;4973277;28;20069;-78
2023/02/01 03:13:55;;;;;;;8.38;4.35;;;;;;;1.54;100.00;95906.56;4972741;28;20069;-78
2023/02/01 03:16:43;;;;;;;8.95;4.40;;;;;;;1.56;100.00;95907.16;4974816;28;20055;-78
2023/02/01 03:19:23;;;;;;;7.80;3.92;;;;;;;1.58;100.00;95900.97;4953967;28;20043;-78
2023/02/01 03:22:05;;;;;;;7.03;4.43;;;;;;;1.61;100.00;95911.75;4972368;28;20094;-79
2023/02/01 03:24:53;;;;;;;8.18;4.47;;;;;;;1.63;100.00;95898.59;4973876;28;20039;-78
2023/02/01 03:27:54;;;;;;;7.20;3.70;;;;;;;1.64;100.00;95900.97;4974605;28;20502;-78
2023/02/01 03:30:21;;;;;;;8.40;4.07;;;;;;;1.68;100.00;95896.16;4959822;28;20531;-78
2023/02/01 03:33:00;;;;;;;6.57;3.55;;;;;;;1.67;100.00;95910.16;4972424;28;20047;-78
2023/02/01 03:35:44;;;;;;;8.05;4.60;;;;;;;1.66;100.00;95898.19;4957024;28;20118;-78
2023/02/01 03:38:21;;;;;;;9.23;4.40;;;;;;;1.66;100.00;95908.56;4970456;28;20039;-78
2023/02/01 03:40:57;;;;;;;6.07;3.28;;;;;;;1.72;100.00;95897.34;4970061;28;20122;-78
2023/02/01 03:43:24;;;;;;;8.23;3.72;;;;;;;1.72;100.00;95897.34;4974826;28;20418;-78
2023/02/01 03:45:54;;;;;;;8.05;4.40;;;;;;;1.72;100.00;95894.75;4957603;28;20043;-78
2023/02/01 03:48:23;;;;;;;9.75;4.25;;;;;;;1.76;100.00;95893.34;4975949;28;20043;-78
2023/02/01 03:50:55;;;;;;;7.28;4.13;;;;;;;1.75;100.00;95881.38;4973972;28;20049;-78
2023/02/01 03:53:24;;;;;;;6.90;3.70;;;;;;;1.82;100.00;95892.53;4969649;28;20668;-78
2023/02/01 03:55:51;;;;;;;6.30;3.45;;;;;;;1.84;100.00;95894.91;4975334;28;20047;-78
2023/02/01 03:58:19;;;;;;;8.35;3.97;;;;;;;1.82;100.00;95882.16;4974080;28;20399;-78
2023/02/01 04:00:53;;;;;;;6.93;4.00;;;;;;;1.83;100.00;95878.56;4972459;28;20504;-78
2023/02/01 04:03:19;;;;;;;5.47;2.97;;;;;;;1.81;100.00;95890.97;4974313;28;20039;-78
2023/02/01 04:05:44;;;;;;;8.07;3.95;;;;;;;1.86;100.00;95882.56;4974470;28;20098;-78
2023/02/01 04:08:10;;;;;;;8.65;3.88;;;;;;;1.82;100.00;95876.97;4957680;28;20058;-78
2023/02/01 04:10:35;;;;;;;7.15;4.20;;;;;;;1.83;100.00;95883.75;4973264;28;20565;-78
2023/02/01 04:13:01;;;;;;;7.10;3.78;;;;;;;1.87;100.00;95884.16;4973919;28;20066;-78
2023/02/01 04:15:26;;;;;;;7.30;4.00;;;;;;;1.94;100.00;95878.91;4974962;28;20035;-78
2023/02/01 04:17:52;;;;;;;7.72;4.25;;;;;;;1.85;100.00;95886.97;4974008;28;20050;-78
2023/02/01 04:20:17;;;;;;;5.60;3.22;;;;;;;1.88;100.00;95902.13;4974392;28;20039;-78
2023/02/01 04:22:43;;;;;;;6.32;3.65;;;;;;;1.96;100.00;95887.31;4974531;28;22042;-78
2023/02/01 04:25:09;;;;;;;7.38;4.70;;;;;;;1.90;100.00;95889.72;4970326;28;20414;-78
2023/02/01 04:27:35;;;;;;;7.68;4.00;;;;;;;1.98;100.00;95895.69;4972468;28;20041;-77
2023/02/01 04:30:01;;;;;;;6.97;3.60;;;;;;;1.95;100.00;95875.34;4958140;28;20129;-79
2023/02/01 04:32:26;;;;;;;6.90;3.42;;;;;;;1.96;100.00;95872.53;4972145;28;20042;-78
2023/02/01 04:34:52;;;;;;;7.72;3.42;;;;;;;1.96;100.00;95876.94;4974175;28;20093;-78
2023/02/01 04:37:17;;;;;;;7.13;4.00;;;;;;;1.85;100.00;95865.38;4973573;28;20487;-78
2023/02/01 04:39:43;;;;;;;7.72;4.25;;;;;;;1.97;100.00;95878.50;4974661;28;20042;-78
2023/02/01 04:42:08;;;;;;;8.90;4.28;;;;;;;1.93;100.00;95866.97;4972997;28;20042;-78
2023/02/01 04:44:36;;;;;;;8.18;3.55;;;;;;;1.93;100.00;95866.97;4974007;28;20062;-78
2023/02/01 04:47:02;;;;;;;9.50;4.32;;;;;;;1.92;100.00;95878.34;4973498;28;20053;-78
2023/02/01 04:49:27;;;;;;;7.95;3.53;;;;;;;1.92;100.00;95880.94;4956992;28;20042;-78
2023/02/01 04:51:53;;;;;;;8.13;3.88;;;;;;;1.92;100.00;95886.13;4973526;28;20064;-78
2023/02/01 04:54:18;;;;;;;6.07;3.47;;;;;;;1.99;100.00;95894.69;4974425;28;20046;-78
2023/02/01 04:56:44;;;;;;;10.32;4.97;;;;;;;1.98;100.00;95895.69;4956154;28;20043;-78
2023/02/01 04:59:11;;;;;;;8.20;4.10;;;;;;;1.96;100.00;95882.13;4973433;28;20414;-78
2023/02/01 05:01:36;;;;;;;8.35;4.35;;;;;;;1.95;100.00;95880.53;4973505;28;20042;-79
2023/02/01 05:04:02;;;;;;;6.72;3.83;;;;;;;1.98;100.00;95880.13;4973837;28;20038;-78
2023/02/01 05:06:28;;;;;;;10.50;4.25;;;;;;;1.94;100.00;95873.72;4972549;28;20113;-78
2023/02/01 05:08:53;;;;;;;10.00;4.30;;;;;;;1.96;100.00;95879.53;4974349;28;20042;-78
2023/02/01 05:14:03;;;;;;;11.13;4.37;;;;;;;1.99;100.00;95871.34;4973751;28;20043;-78
2023/02/01 05:16:28;;;;;;;5.75;3.72;;;;;;;1.98;100.00;95880.13;4973306;28;20049;-78
2023/02/01 05:18:54;;;;;;;6.80;4.20;;;;;;;1.96;100.00;95887.31;4973596;28;20039;-78
2023/02/01 05:21:20;;;;;;;8.65;3.92;;;;;;;1.94;100.00;95884.13;4973397;28;20043;-78
2023/02/01 05:26:29;;;;;;;8.65;4.22;;;;;;;1.96;100.00;95887.31;4975863;28;20035;-78
2023/02/01 05:28:55;;;;;;;8.38;4.53;;;;;;;1.94;100.00;95884.13;4974068;28;20523;-78
2023/02/01 05:31:21;;;;;;;9.75;4.55;;;;;;;1.96;100.00;95897.69;4972432;28;20521;-78
2023/02/01 05:33:47;;;;;;;8.77;4.53;;;;;;;1.93;100.00;95887.72;4961603;28;20083;-78
2023/02/01 05:36:13;;;;;;;8.65;4.57;;;;;;;1.93;100.00;95898.13;4973439;28;20495;-78
2023/02/01 05:38:38;;;;;;;8.13;4.28;;;;;;;2.00;100.00;95899.69;4973589;28;20490;-78
2023/02/01 05:41:04;;;;;;;8.75;4.47;;;;;;;1.99;100.00;95899.88;4972092;28;20173;-78
2023/02/01 05:43:30;;;;;;;8.18;4.60;;;;;;;1.98;100.00;95893.88;4973922;28;20039;-78
2023/02/01 05:45:55;;;;;;;8.43;3.75;;;;;;;1.97;100.00;95886.28;4974424;28;20417;-78
2023/02/01 05:48:21;;;;;;;14.45;6.32;;;;;;;1.97;100.00;95888.91;4952872;29;20043;-78
2023/02/01 05:50:46;;;;;;;14.30;4.63;;;;;;;1.90;100.00;95878.56;4967927;28;20117;-78
2023/02/01 05:53:12;;;;;;;8.75;4.63;;;;;;;1.98;100.00;95887.91;4959123;28;20050;-78
2023/02/01 05:55:38;;;;;;;10.77;4.88;;;;;;;1.89;100.00;95893.31;4977953;28;20045;-78
2023/02/01 05:58:04;;;;;;;8.65;4.72;;;;;;;1.95;100.00;95893.50;4959685;28;20043;-78
2023/02/01 06:00:30;;;;;;;9.15;4.72;;;;;;;1.96;100.00;95897.69;4974682;28;20046;-78
2023/02/01 06:02:55;;;;;;;9.93;4.68;;;;;;;1.99;100.00;95892.09;4958404;28;20046;-78
2023/02/01 06:05:21;;;;;;;10.30;4.30;;;;;;;1.98;100.00;95885.31;4976799;28;20039;-78
2023/02/01 06:07:47;;;;;;;11.90;4.50;;;;;;;1.98;100.00;95891.28;4974304;28;20039;-78
2023/02/01 06:10:13;;;;;;;10.35;4.50;;;;;;;2.02;100.00;95886.50;4959897;28;20042;-78
2023/02/01 06:12:38;;;;;;;13.18;4.68;;;;;;;1.98;100.00;95880.13;4976832;28;20047;-78
2023/02/01 06:15:05;;;;;;;13.57;5.88;;;;;;;1.97;100.00;95875.91;4976035;28;20129;-78
2023/02/01 06:17:30;;;;;;;11.02;5.57;;;;;;;1.94;100.00;95878.91;4974373;28;20038;-78
2023/02/01 06:19:56;;;;;;;12.27;5.70;;;;;;;1.98;100.00;95874.91;4976678;28;20054;-78
2023/02/01 06:22:22;;;;;;;9.50;4.70;;;;;;;2.01;100.00;95858.94;4976823;28;20038;-78
2023/02/01 06:24:48;;;;;;;9.63;5.35;;;;;;;1.97;100.00;95884.50;4976508;28;20039;-78
2023/02/01 06:27:14;;;;;;;14.95;5.60;;;;;;;1.97;100.00;95894.09;4974588;28;20641;-78
2023/02/01 06:29:40;;;;;;;12.13;5.00;;;;;;;2.01;100.00;95884.88;4975868;28;20042;-78
2023/02/01 06:32:06;;;;;;;7.82;4.07;;;;;;;2.03;100.00;95893.28;4955497;28;20043;-78
2023/02/01 06:34:32;;;;;;;9.10;4.88;;;;;;;1.93;100.00;95879.94;4976851;28;20042;-78
2023/02/01 06:36:57;;;;;;;13.93;5.20;;;;;;;2.01;100.00;95890.06;4974586;28;20113;-78
2023/02/01 06:39:23;;;;;;;12.52;5.68;;;;;;;1.99;100.00;95876.53;4976590;28;20059;-77
2023/02/01 06:41:49;;;;;;;14.77;6.15;;;;;;;1.98;100.00;95891.28;4971987;28;20697;-78
2023/02/01 06:44:15;;;;;;;14.35;6.85;;;;;;;2.00;100.00;95893.69;4975654;28;20422;-78
2023/02/01 06:46:41;;;;;;;15.40;6.40;;;;;;;2.06;100.00;95877.28;4975909;28;20444;-78
2023/02/01 06:49:07;;;;;;;13.68;6.32;;;;;;;1.95;100.00;95880.53;4957157;28;20046;-78
2023/02/01 06:51:32;;;;;;;13.02;5.18;;;;;;;2.04;100.00;95889.66;4974157;28;20434;-78
2023/02/01 06:53:58;;;;;;;7.72;3.83;;;;;;;2.02;100.00;95886.50;4956080;28;20047;-76
2023/02/01 06:56:24;;;;;;;17.73;7.45;;;;;;;2.03;100.00;95882.91;4971595;28;20482;-76
2023/02/01 06:58:50;;;;;;;15.18;6.57;;;;;;;2.16;100.00;95882.03;4973023;28;20039;-77
2023/02/01 07:01:15;;;;;;;9.60;5.20;;;;;;;2.14;100.00;95892.66;4972829;28;20089;-77
2023/02/01 07:03:42;;;;;;;14.07;5.60;;;;;;;2.12;100.00;95886.84;4946835;28;20396;-77
2023/02/01 07:06:09;;;;;;;10.32;5.13;;;;;;;2.16;100.00;95875.03;4972569;28;20053;-77
2023/02/01 07:08:37;;;;;;;11.82;5.25;;;;;;;2.08;100.00;95883.06;4974365;28;20035;-78
2023/02/01 07:11:10;;;;;;;27.95;9.77;;;;;;;2.12;100.00;95863.47;4955263;28;20426;-77
2023/02/01 07:13:36;;;;;;;11.32;5.10;;;;;;;2.16;100.00;95875.03;4973589;28;20043;-78
2023/02/01 07:16:03;;;;;;;9.05;4.45;;;;;;;2.16;100.00;95882.84;4972339;28;20046;-78
2023/02/01 07:18:30;;;;;;;11.93;5.28;;;;;;;2.13;100.00;95867.69;4970407;28;20109;-79
2023/02/01 07:20:56;;;;;;;8.75;4.78;;;;;;;2.24;100.00;95861.84;4969302;28;20121;-75
2023/02/01 07:23:23;;;;;;;11.00;5.78;;;;;;;2.23;100.00;95877.63;4972262;28;20043;-78
2023/02/01 07:25:49;;;;;;;8.40;4.57;;;;;;;2.19;100.00;95882.41;4954313;28;20055;-79
2023/02/01 07:28:14;;;;;;;13.50;6.30;;;;;;;2.19;100.00;95851.25;4972742;28;20042;-78
2023/02/01 07:30:40;;;;;;;7.80;3.80;;;;;;;2.18;100.00;95849.66;4972455;28;20047;-81
2023/02/01 07:33:06;;;;;;;7.78;4.18;;;;;;;2.19;100.00;95851.25;4952961;28;20043;-77
2023/02/01 07:35:32;;;;;;;7.25;3.53;;;;;;;2.21;100.00;95849.25;4972741;28;20038;-78
2023/02/01 07:37:58;;;;;;;8.35;3.95;;;;;;;2.29;100.00;95829.25;4958466;28;20089;-79
2023/02/01 07:40:28;;;;;;;8.73;3.88;;;;;;;2.25;100.00;95829.66;4972129;28;20047;-78
2023/02/01 07:42:57;;;;;;;8.38;3.47;;;;;;;2.32;100.00;95841.81;4963842;28;20046;-79
2023/02/01 07:45:23;;;;;;;5.85;3.30;;;;;;;2.36;100.00;95828.19;4971321;28;20049;-78
2023/02/01 07:47:50;;;;;;;6.20;3.38;;;;;;;2.35;100.00;95828.41;4972520;28;20043;-77
2023/02/01 07:50:16;;;;;;;8.45;3.45;;;;;;;2.39;100.00;95845.16;4953578;28;20043;-79
2023/02/01 07:52:42;;;;;;;11.05;3.58;;;;;;;2.37;100.00;95822.00;4952398;28;20047;-81
2023/02/01 07:55:08;;;;;;;6.65;3.17;;;;;;;2.42;100.00;95829.16;4971249;28;20043;-80
2023/02/01 07:57:33;;;;;;;5.10;2.80;;;;;;;2.44;100.00;95832.34;4955241;28;20606;-81
2023/02/01 08:02:43;;;;;;;6.40;3.30;;;;;;;2.53;100.00;95849.28;4969404;28;20509;-78
2023/02/01 08:05:08;;;;;;;6.22;3.10;;;;;;;2.53;100.00;95851.06;4972168;28;20042;-80
2023/02/01 08:07:34;;;;;;;5.97;2.80;;;;;;;2.55;100.00;95855.03;4972243;28;20055;-78
2023/02/01 08:10:00;;;;;;;7.10;3.17;;;;;;;2.60;100.00;95852.63;4973281;28;20046;-78
2023/02/01 08:12:26;;;;;;;5.53;3.08;;;;;;;2.62;100.00;95864.63;4972236;28;20678;-78
2023/02/01 08:14:53;;;;;;;11.85;3.05;;;;;;;2.67;100.00;95867.38;4970430;28;20114;-78
2023/02/01 08:17:19;;;;;;;4.57;2.53;;;;;;;2.75;100.00;95872.31;4971797;28;20054;-78
2023/02/01 08:19:45;;;;;;;9.18;3.15;;;;;;;2.73;100.00;95882.13;4971480;28;20101;-78
2023/02/01 08:22:10;;;;;;;4.65;2.47;;;;;;;2.78;100.00;95890.09;4972706;28;20491;-80
2023/02/01 08:24:39;;;;;;;8.20;2.83;;;;;;;2.83;100.00;95872.06;4951905;29;20478;-78
2023/02/01 08:27:05;;;;;;;5.97;2.63;;;;;;;2.82;100.00;95875.66;4966789;28;20038;-78
2023/02/01 08:29:30;;;;;;;4.95;2.60;;;;;;;2.85;100.00;95870.03;4953541;28;20509;-79
2023/02/01 08:31:56;;;;;;;4.38;2.67;;;;;;;2.91;100.00;95878.81;4951873;28;20043;-80
2023/02/01 08:34:22;;;;;;;5.78;2.85;;;;;;;2.97;100.00;95898.75;4972465;28;20043;-79
2023/02/01 08:36:47;;;;;;;4.32;2.60;;;;;;;2.97;100.00;95900.56;4971528;28;20106;-77
2023/02/01 08:39:13;;;;;;;8.20;3.30;;;;;;;2.98;100.00;95909.97;4970222;28;20530;-78
2023/02/01 08:41:38;;;;;;;4.18;2.40;;;;;;;2.98;100.00;95913.34;4971565;28;20510;-81
2023/02/01 08:44:04;;;;;;;5.53;3.05;;;;;;;2.99;100.00;95906.34;4954893;28;20530;-79
2023/02/01 08:46:30;;;;;;;5.22;2.42;;;;;;;3.09;100.00;95896.28;4971797;28;20035;-81
2023/02/01 08:48:55;;;;;;;4.88;2.47;;;;;;;3.10;100.00;95890.06;4962012;28;20051;-80
2023/02/01 08:51:22;;;;;;;4.97;2.70;;;;;;;3.08;100.00;95890.28;4968765;28;20045;-76
2023/02/01 08:53:49;;;;;;;4.10;2.17;;;;;;;3.20;100.00;95898.16;4972324;28;20047;-83
2023/02/01 08:56:16;;;;;;;4.45;2.70;;;;;;;3.18;100.00;95884.59;4957022;28;20392;-80
2023/02/01 08:58:42;;;;;;;5.93;2.80;;;;;;;3.21;100.00;95904.97;4974325;28;20042;-82
2023/02/01 09:01:14;;;;;;;6.97;3.05;;;;;;;3.22;100.00;95896.16;4973241;28;20154;-78
2023/02/01 09:03:40;;;;;;;4.75;2.65;;;;;;;3.23;100.00;95892.56;4971087;28;20057;-77
2023/02/01 09:06:10;;;;;;;6.55;2.78;;;;;;;3.27;100.00;95888.50;4970918;28;20046;-79
2023/02/01 09:08:36;;;;;;;5.95;3.20;;;;;;;3.23;100.00;95889.97;4970988;28;20042;-81
2023/02/01 09:11:05;;;;;;;5.68;3.10;;;;;;;3.31;100.00;95895.91;4972393;28;20105;-80
2023/02/01 09:13:30;;;;;;;4.85;2.90;;;;;;;3.34;100.00;95901.47;4970432;28;20044;-78
2023/02/01 09:15:56;;;;;;;5.80;2.90;;;;;;;3.37;100.00;95892.44;4972453;28;20051;-78
2023/02/01 09:18:22;;;;;;;4.60;2.30;;;;;;;3.38;100.00;95896.66;4954685;28;20039;-77
2023/02/01 09:20:48;;;;;;;8.15;2.78;;;;;;;3.36;100.00;95901.25;4970565;28;20451;-78
2023/02/01 09:23:14;;;;;;;6.68;2.45;;;;;;;3.46;100.00;95901.56;4972169;28;20049;-79
2023/02/01 09:25:39;;;;;;;7.43;3.08;;;;;;;3.51;100.00;95904.31;4969740;28;20050;-79
2023/02/01 09:28:08;;;;;;;5.65;2.60;;;;;;;3.57;100.00;95898.25;4972804;28;20075;-78
2023/02/01 09:30:36;;;;;;;6.50;2.88;;;;;;;3.53;100.00;95897.09;4966614;28;20043;-80
2023/02/01 09:33:02;;;;;;;3.63;2.00;;;;;;;3.56;100.00;95896.69;4971731;28;20045;-80
2023/02/01 09:35:28;;;;;;;4.75;2.50;;;;;;;3.65;100.00;95905.00;4971245;28;20091;-80
2023/02/01 09:37:53;;;;;;;5.68;2.65;;;;;;;3.69;100.00;95881.94;4971779;28;20054;-78
2023/02/01 09:40:20;;;;;;;5.65;2.70;;;;;;;3.73;100.00;95909.13;4953995;28;20055;-79
2023/02/01 09:43:10;;;;;;;7.53;2.55;;;;;;;3.85;100.00;95904.81;4972358;28;20078;-84
2023/02/01 09:45:51;;;;;;;4.45;2.60;;;;;;;3.77;100.00;95899.88;4971208;28;20626;-79
2023/02/01 09:48:21;;;;;;;5.32;3.15;;;;;;;3.77;100.00;95892.06;4972052;28;20054;-83
2023/02/01 09:50:54;;;;;;;4.72;2.35;;;;;;;3.73;100.00;95890.91;4970694;28;20046;-78
2023/02/01 09:53:40;;;;;;;5.32;2.70;;;;;;;3.83;100.00;95901.59;4971566;28;20070;-79
2023/02/01 09:56:11;;;;;;;5.80;2.85;;;;;;;3.84;100.00;95903.19;4969769;28;20050;-79
2023/02/01 09:58:38;;;;;;;5.22;2.63;;;;;;;3.91;100.00;95903.91;4953984;28;20193;-79
2023/02/01 10:01:10;;;;;;;6.13;2.83;;;;;;;3.91;100.00;95903.91;4954548;28;20058;-79
2023/02/01 10:03:36;;;;;;;4.43;2.47;;;;;;;3.94;100.00;95908.69;4966109;28;20116;-78
2023/02/01 10:06:20;;;;;;;4.78;2.72;;;;;;;3.85;100.00;95910.00;4968030;28;20050;-78
2023/02/01 10:09:04;;;;;;;8.90;2.92;;;;;;;3.88;100.00;95922.59;4961537;28;20046;-78
2023/02/01 10:11:48;;;;;;;4.00;2.15;;;;;;;3.92;100.00;95899.50;4963278;28;20039;-78
2023/02/01 10:14:31;;;;;;;5.10;2.53;;;;;;;3.81;100.00;95903.63;4969978;28;20051;-77
2023/02/01 10:17:34;;;;;;;6.07;2.85;;;;;;;3.76;100.00;95908.69;4971132;28;20043;-77
2023/02/01 10:20:05;;;;;;;5.30;2.67;;;;;;;3.84;100.00;95913.63;4970764;28;20066;-81
2023/02/01 10:22:53;;;;;;;8.73;3.13;;;;;;;3.80;100.00;95918.44;4967964;28;20043;-78
2023/02/01 10:25:36;;;;;;;5.25;2.70;;;;;;;3.72;100.00;95917.94;4971109;28;20104;-78
2023/02/01 10:28:03;;;;;;;7.03;2.67;;;;;;;3.84;100.00;95918.81;4964877;28;20407;-80
2023/02/01 10:30:43;;;;;;;6.45;2.97;;;;;;;3.82;100.00;95913.03;4954108;28;20066;-78
2023/02/01 10:33:26;;;;;;;6.95;2.50;;;;;;;3.80;100.00;95907.25;4969209;28;20043;-78
2023/02/01 10:36:10;;;;;;;8.32;2.70;;;;;;;3.79;100.00;95905.66;4951937;28;20570;-76
2023/02/01 10:38:36;;;;;;;5.85;2.78;;;;;;;3.85;100.00;95920.41;4972272;28;20034;-78
2023/02/01 10:41:11;;;;;;;8.00;2.78;;;;;;;3.78;100.00;95914.50;4972452;28;20058;-78
2023/02/01 10:43:39;;;;;;;4.93;2.40;;;;;;;3.84;100.00;95921.44;4972839;28;20039;-80
2023/02/01 10:46:06;;;;;;;5.03;2.63;;;;;;;3.87;100.00;95913.19;4972730;28;20422;-81
2023/02/01 10:48:32;;;;;;;6.15;2.70;;;;;;;3.96;100.00;95922.28;4974567;28;20050;-84
2023/02/01 10:51:02;;;;;;;8.43;2.80;;;;;;;3.86;100.00;95895.97;4953432;28;20047;-83
2023/02/01 10:53:46;;;;;;;4.47;2.25;;;;;;;3.99;100.00;95911.44;4975590;28;20042;-82
2023/02/01 10:56:13;;;;;;;4.70;2.58;;;;;;;4.05;100.00;95911.56;4972535;28;20039;-78
2023/02/01 10:58:47;;;;;;;3.53;2.08;;;;;;;3.83;100.00;95901.59;4974581;28;20047;-79
2023/02/01 11:01:19;;;;;;;6.97;3.28;;;;;;;3.88;100.00;95909.56;4966059;28;20564;-77
2023/02/01 11:04:13;;;;;;;6.50;2.70;;;;;;;3.96;100.00;95917.06;4950622;28;20054;-81
2023/02/01 11:06:41;;;;;;;6.95;3.08;;;;;;;3.72;100.00;95925.75;4956140;28;20164;-77
2023/02/01 11:09:07;;;;;;;7.32;2.40;;;;;;;3.70;100.00;95932.97;4974297;28;20047;-78
2023/02/01 11:11:53;;;;;;;4.68;2.55;;;;;;;3.68;100.00;95945.41;4973248;28;20043;-78
2023/02/01 11:14:24;;;;;;;5.95;3.17;;;;;;;3.53;100.00;95928.31;4953415;28;20138;-78
2023/02/01 11:16:54;;;;;;;5.05;2.72;;;;;;;3.53;100.00;95933.50;4976584;28;20046;-78
2023/02/01 11:19:20;;;;;;;5.85;2.47;;;;;;;3.72;100.00;95925.75;4972925;28;20517;-78
2023/02/01 11:21:51;;;;;;;5.68;2.90;;;;;;;3.70;100.00;95930.38;4965745;28;20031;-82
2023/02/01 11:24:21;;;;;;;6.53;3.13;;;;;;;3.65;100.00;95925.81;4972350;28;20043;-78
2023/02/01 11:26:47;;;;;;;9.73;3.17;;;;;;;3.68;100.00;95932.38;4973579;28;20097;-78
2023/02/01 11:29:22;;;;;;;5.60;3.05;;;;;;;3.66;100.00;95927.41;4972534;28;20039;-79
2023/02/01 11:31:48;;;;;;;7.55;3.08;;;;;;;3.66;100.00;95930.00;4970422;28;20558;-78
2023/02/01 11:34:24;;;;;;;7.55;3.35;;;;;;;3.69;100.00;95936.59;4972997;28;20109;-77
2023/02/01 11:36:52;;;;;;;5.85;3.00;;;;;;;3.68;100.00;95940.19;4971671;28;20101;-77
2023/02/01 11:39:22;;;;;;;7.13;3.40;;;;;;;3.78;100.00;95945.72;4973043;28;20415;-77
2023/02/01 11:42:12;;;;;;;5.57;3.10;;;;;;;3.64;100.00;95945.03;4970831;28;20790;-77
2023/02/01 11:44:41;;;;;;;4.60;2.67;;;;;;;3.50;100.00;95928.75;4974379;28;20491;-77
2023/02/01 11:47:25;;;;;;;8.00;3.10;;;;;;;3.56;100.00;95937.50;4978508;28;20043;-78
2023/02/01 11:49:59;;;;;;;6.70;3.45;;;;;;;3.60;100.00;95934.25;4977956;28;20054;-79
2023/02/01 11:52:43;;;;;;;6.90;2.92;;;;;;;3.64;100.00;95942.44;4959880;28;20047;-80
2023/02/01 11:55:18;;;;;;;8.15;3.15;;;;;;;3.59;100.00;95929.25;4981914;28;20106;-79
2023/02/01 11:58:04;;;;;;;;;;;;;;;3.56;100.00;95933.13;4957154;28;20043;-79
2023/02/01 12:00:57;;;;;;;7.75;3.00;;;;;;;3.55;100.00;95921.09;4965199;28;20318;-80
2023/02/01 12:03:46;;;;;;;5.43;3.08;;;;;;;3.48;100.00;95915.16;4978729;28;20398;-78
2023/02/01 12:06:24;;;;;;;6.50;3.50;;;;;;;3.60;100.00;95913.44;4966594;28;20119;-74
2023/02/01 12:08:58;;;;;;;6.32;3.10;;;;;;;3.57;100.00;95903.47;4971967;28;20095;-79